Time;durP1;ratioP1;P1;durP2;ratioP2;P2;SDS_P1;SDS_P2;PMS_P1;PMS_P2;Temp;Humidity;BMP_temperature;BMP_pressure;BME280_temperature;BME280_humidity;BME280_pressure;Samples;Min_cycle;Max_cycle;Signal;HPM_P1;HPM_P2
2023/08/19 00:02:36;;;;;;;;;;;;;;;20.58;100.00;95751.91;10557337;28;2167;-68
2023/08/19 00:07:40;;;;;;;;;;;;;;;20.59;100.00;95758.16;10546566;28;2422;-68
2023/08/19 00:12:43;;;;;;;;;;;;;;;20.63;100.00;95759.09;10550354;28;2149;-69
2023/08/19 00:17:47;;;;;;;;;;;;;;;20.41;100.00;95744.66;10547859;28;2033;-68
2023/08/19 00:22:50;;;;;;;;;;;;;;;20.49;100.00;95743.81;10561822;28;1926;-69
2023/08/19 00:27:53;;;;;;;;;;;;;;;20.38;100.00;95737.13;10559140;27;2015;-69
2023/08/19 00:32:56;;;;;;;;;;;;;;;20.37;100.00;95751.94;10559116;27;1950;-68
2023/08/19 00:38:00;;;;;;;;;;;;;;;20.73;100.00;95743.03;10561522;27;2224;-70
2023/08/19 00:43:02;;;;;;;;;;;;;;;20.61;100.00;95734.03;10559304;27;4525;-69
2023/08/19 00:48:06;;;;;;;;;;;;;;;20.28;100.00;95731.28;10562936;27;1887;-69
2023/08/19 00:53:11;;;;;;;;;;;;;;;20.11;100.00;95738.53;10561135;27;1940;-68
2023/08/19 00:58:14;;;;;;;;;;;;;;;20.30;100.00;95742.69;10550317;27;2070;-69
2023/08/19 01:03:20;;;;;;;;;;;;;;;20.20;100.00;95743.91;10559115;27;2071;-69
2023/08/19 01:08:25;;;;;;;;;;;;;;;20.25;100.00;95740.97;10562368;27;1987;-68
2023/08/19 01:13:30;;;;;;;;;;;;;;;19.92;100.00;95736.28;10552766;27;1978;-68
2023/08/19 01:18:37;;;;;;;;;;;;;;;19.96;100.00;95720.84;10554666;27;1977;-68
2023/08/19 01:23:40;;;;;;;;;;;;;;;19.96;100.00;95709.13;10577608;27;1954;-69
2023/08/19 01:28:43;;;;;;;;;;;;;;;19.90;100.00;95719.44;10535122;27;2046;-69
2023/08/19 01:33:50;;;;;;;;;;;;;;;20.01;100.00;95714.38;10552797;27;1970;-69
2023/08/19 01:38:54;;;;;;;;;;;;;;;19.65;100.00;95715.00;10555485;27;1993;-68
2023/08/19 01:43:57;;;;;;;;;;;;;;;19.91;100.00;95715.59;10557541;27;4580;-68
2023/08/19 01:49:00;;;;;;;;;;;;;;;19.93;100.00;95704.34;10556040;27;1978;-68
2023/08/19 01:54:04;;;;;;;;;;;;;;;19.58;100.00;95712.00;10561120;27;1941;-68
2023/08/19 01:59:07;;;;;;;;;;;;;;;19.31;100.00;95721.47;10560575;27;1995;-68
2023/08/19 02:04:16;;;;;;;;;;;;;;;19.04;100.00;95718.09;10546832;27;1963;-68
2023/08/19 02:09:20;;;;;;;;;;;;;;;18.86;100.00;95722.03;10555158;27;1967;-68
2023/08/19 02:14:23;;;;;;;;;;;;;;;18.88;100.00;95719.78;10559349;27;1868;-68
2023/08/19 02:19:27;;;;;;;;;;;;;;;19.17;100.00;95724.44;10545510;27;2004;-68
2023/08/19 02:24:30;;;;;;;;;;;;;;;19.03;100.00;95732.06;10538467;27;2006;-70
2023/08/19 02:29:36;;;;;;;;;;;;;;;18.96;100.00;95734.47;10546703;28;1979;-70
2023/08/19 02:34:39;;;;;;;;;;;;;;;18.74;100.00;95741.00;10559060;27;1964;-69
2023/08/19 02:39:43;;;;;;;;;;;;;;;18.97;100.00;95745.06;10543789;27;2263;-70
2023/08/19 02:44:46;;;;;;;;;;;;;;;18.64;100.00;95747.56;10540788;27;4825;-69
2023/08/19 02:49:51;;;;;;;;;;;;;;;18.59;100.00;95743.09;10556590;27;1915;-68
2023/08/19 02:54:55;;;;;;;;;;;;;;;18.83;100.00;95739.84;10521917;27;1970;-68
2023/08/19 02:59:57;;;;;;;;;;;;;;;18.81;100.00;95733.09;10541483;28;1922;-69
2023/08/19 03:05:04;;;;;;;;;;;;;;;18.81;100.00;95731.19;10558004;27;1937;-69
2023/08/19 03:10:07;;;;;;;;;;;;;;;18.81;100.00;95730.38;10557719;27;1970;-68
2023/08/19 03:15:11;;;;;;;;;;;;;;;19.28;100.00;95730.31;10540243;27;1964;-67
2023/08/19 03:20:16;;;;;;;;;;;;;;;19.42;100.00;95723.47;10557360;27;1943;-68
2023/08/19 03:25:20;;;;;;;;;;;;;;;19.38;100.00;95724.47;10560934;28;1977;-68
2023/08/19 03:30:24;;;;;;;;;;;;;;;19.12;100.00;95719.97;10562373;27;1974;-68
2023/08/19 03:35:27;;;;;;;;;;;;;;;19.31;100.00;95733.16;10550672;28;6874;-68
2023/08/19 03:40:33;;;;;;;;;;;;;;;19.18;100.00;95735.00;10550583;27;5740;-67
2023/08/19 03:45:36;;;;;;;;;;;;;;;18.74;100.00;95741.78;10571947;27;2005;-69
2023/08/19 03:50:39;;;;;;;;;;;;;;;19.15;100.00;95734.88;10555646;28;5564;-69
2023/08/19 03:55:42;;;;;;;;;;;;;;;18.53;100.00;95746.31;10563892;28;1951;-66
2023/08/19 04:00:47;;;;;;;;;;;;;;;18.67;100.00;95746.94;10552046;27;1970;-69
2023/08/19 04:05:50;;;;;;;;;;;;;;;19.26;100.00;95741.53;10569917;27;5344;-69
2023/08/19 04:10:54;;;;;;;;;;;;;;;19.26;100.00;95746.97;10563082;27;2106;-70
2023/08/19 04:16:00;;;;;;;;;;;;;;;18.71;100.00;95753.34;10566792;27;2030;-70
2023/08/19 04:21:03;;;;;;;;;;;;;;;19.25;100.00;95750.84;10570641;27;2043;-70
2023/08/19 04:26:07;;;;;;;;;;;;;;;18.85;100.00;95753.94;10566196;27;2043;-69
2023/08/19 04:31:10;;;;;;;;;;;;;;;18.76;100.00;95758.59;10565016;27;2026;-69
2023/08/19 04:36:14;;;;;;;;;;;;;;;18.66;100.00;95761.66;10565681;27;1975;-68
2023/08/19 04:41:17;;;;;;;;;;;;;;;19.08;100.00;95756.38;10565698;27;6416;-68
2023/08/19 04:46:23;;;;;;;;;;;;;;;19.70;100.00;95761.16;10540505;27;1987;-69
2023/08/19 04:51:26;;;;;;;;;;;;;;;19.93;100.00;95765.16;10565390;27;1955;-68
2023/08/19 04:56:30;;;;;;;;;;;;;;;20.21;100.00;95770.84;10547321;27;1972;-68
2023/08/19 05:01:33;;;;;;;;;;;;;;;20.72;100.00;95773.44;10564863;27;1961;-68
2023/08/19 05:06:37;;;;;;;;;;;;;;;20.48;100.00;95774.16;10537290;27;1946;-68
2023/08/19 05:11:42;;;;;;;;;;;;;;;20.88;100.00;95771.66;10562505;27;1927;-68
2023/08/19 05:16:46;;;;;;;;;;;;;;;21.28;100.00;95765.50;10565214;27;1961;-67
2023/08/19 05:21:50;;;;;;;;;;;;;;;21.45;100.00;95772.72;10540674;27;1949;-68
2023/08/19 05:26:53;;;;;;;;;;;;;;;21.83;100.00;95766.84;10561809;27;1990;-68
2023/08/19 05:31:57;;;;;;;;;;;;;;;21.77;100.00;95776.44;10550687;27;1930;-69
2023/08/19 05:37:01;;;;;;;;;;;;;;;21.70;100.00;95778.97;10553879;27;2986;-69
2023/08/19 05:42:07;;;;;;;;;;;;;;;22.06;100.00;95784.34;10561794;27;5064;-69
2023/08/19 05:47:10;;;;;;;;;;;;;;;22.11;100.00;95789.59;10561328;27;1918;-69
2023/08/19 05:52:13;;;;;;;;;;;;;;;22.26;100.00;95790.78;10534054;27;2005;-68
2023/08/19 05:57:17;;;;;;;;;;;;;;;22.52;100.00;95787.63;10544643;27;2135;-68
2023/08/19 06:02:20;;;;;;;;;;;;;;;22.67;100.00;95780.59;10561646;27;1962;-68
2023/08/19 06:07:26;;;;;;;;;;;;;;;22.92;100.00;95792.22;10557926;27;2013;-69
2023/08/19 06:12:33;;;;;;;;;;;;;;;23.03;100.00;95793.31;10556089;27;2233;-68
2023/08/19 06:17:40;;;;;;;;;;;;;;;23.27;100.00;95792.31;10556834;27;1887;-68
2023/08/19 06:22:46;;;;;;;;;;;;;;;23.52;100.00;95801.16;10578021;27;1984;-69
2023/08/19 06:27:50;;;;;;;;;;;;;;;23.03;100.00;95817.16;10562062;27;2179;-68
2023/08/19 06:32:55;;;;;;;;;;;;;;;23.52;100.00;95812.13;10542763;27;2766;-67
2023/08/19 06:37:58;;;;;;;;;;;;;;;24.03;100.00;95808.59;10539840;28;1974;-68
2023/08/19 06:43:02;;;;;;;;;;;;;;;24.12;100.00;95817.44;10561634;27;5021;-68
2023/08/19 06:48:07;;;;;;;;;;;;;;;24.61;100.00;95816.88;10561663;27;1974;-68
2023/08/19 06:53:11;;;;;;;;;;;;;;;24.55;100.00;95824.63;10562907;27;1954;-68
2023/08/19 06:58:14;;;;;;;;;;;;;;;24.69;100.00;95829.63;10564982;27;2177;-68
2023/08/19 07:03:18;;;;;;;;;;;;;;;25.45;100.00;95833.41;10564631;27;1955;-70
2023/08/19 07:08:24;;;;;;;;;;;;;;;25.66;100.00;95830.19;10566185;27;1903;-67
2023/08/19 07:13:28;;;;;;;;;;;;;;;25.07;100.00;95837.06;10572526;27;1965;-68
2023/08/19 07:18:31;;;;;;;;;;;;;;;25.53;100.00;95834.31;10550804;27;1870;-67
2023/08/19 07:23:34;;;;;;;;;;;;;;;25.51;100.00;95839.34;10519922;28;1937;-67
2023/08/19 07:28:37;;;;;;;;;;;;;;;25.21;100.00;95844.75;10540898;27;2693;-66
2023/08/19 07:33:40;;;;;;;;;;;;;;;26.00;100.00;95846.84;10556108;28;2392;-66
2023/08/19 07:38:47;;;;;;;;;;;;;;;26.27;100.00;95850.38;10580274;27;1870;-67
2023/08/19 07:43:52;;;;;;;;;;;;;;;26.21;100.00;95852.69;10563779;27;5143;-70
2023/08/19 07:48:56;;;;;;;;;;;;;;;26.49;100.00;95852.28;10563691;28;1817;-69
2023/08/19 07:53:59;;;;;;;;;;;;;;;26.25;100.00;95850.75;10554055;28;2125;-67
2023/08/19 07:59:03;;;;;;;;;;;;;;;26.48;100.00;95866.44;10557817;28;1761;-69
2023/08/19 08:04:11;;;;;;;;;;;;;;;26.16;100.00;95875.03;10559683;28;1974;-69
2023/08/19 08:09:21;;;;;;;;;;;;;;;26.93;100.00;95870.94;10530357;28;1691;-67
2023/08/19 08:14:24;;;;;;;;;;;;;;;27.22;100.00;95874.81;10564367;27;1873;-68
2023/08/19 08:19:27;;;;;;;;;;;;;;;26.95;100.00;95874.09;10575444;27;1917;-68
2023/08/19 08:24:30;;;;;;;;;;;;;;;27.56;100.00;95866.47;10555799;28;1906;-67
2023/08/19 08:29:33;;;;;;;;;;;;;;;27.50;100.00;95866.03;10552080;28;2904;-68
2023/08/19 08:34:37;;;;;;;;;;;;;;;27.65;100.00;95853.91;10536829;28;1925;-67
2023/08/19 08:39:44;;;;;;;;;;;;;;;27.37;100.00;95862.75;10560247;28;1660;-67
2023/08/19 08:44:49;;;;;;;;;;;;;;;27.45;100.00;95852.56;10568318;27;1975;-67
2023/08/19 08:50:00;;;;;;;;;;;;;;;27.78;100.00;95854.44;10567773;27;1785;-66
2023/08/19 08:55:04;;;;;;;;;;;;;;;27.73;100.00;95852.03;10551806;28;1758;-67
2023/08/19 09:00:07;;;;;;;;;;;;;;;27.94;100.00;95866.03;10567120;27;1979;-69
2023/08/19 09:05:12;;;;;;;;;;;;;;;27.46;100.00;95854.13;10567766;27;1849;-67
2023/08/19 09:10:16;;;;;;;;;;;;;;;27.01;100.00;95866.28;10564648;27;1967;-68
2023/08/19 09:15:18;;;;;;;;;;;;;;;27.41;100.00;95860.78;10563577;27;2117;-67
2023/08/19 09:20:23;;;;;;;;;;;;;;;28.18;100.00;95859.03;10556899;27;1937;-68
2023/08/19 09:25:26;;;;;;;;;;;;;;;28.35;100.00;95854.84;10569418;28;1480;-66
2023/08/19 09:30:29;;;;;;;;;;;;;;;28.86;97.37;95848.34;10569100;27;1944;-74
2023/08/19 09:35:43;;;;;;;;;;;;;;;28.75;94.99;95853.03;10558894;27;1876;-73
2023/08/19 09:41:00;;;;;;;;;;;;;;;28.81;96.30;95860.56;10545894;27;5255;-75
2023/08/19 09:46:11;;;;;;;;;;;;;;;28.99;94.64;95852.38;10560921;27;1869;-75
2023/08/19 09:51:18;;;;;;;;;;;;;;;28.91;96.64;95855.50;10566304;27;1972;-76
2023/08/19 09:56:22;;;;;;;;;;;;;;;29.26;92.20;95855.59;10555648;27;1942;-75
2023/08/19 10:01:27;;;;;;;;;;;;;;;29.24;90.64;95859.94;10562276;27;1980;-75
2023/08/19 10:06:31;;;;;;;;;;;;;;;29.54;90.29;95863.19;10563075;27;1829;-74
2023/08/19 10:11:38;;;;;;;;;;;;;;;29.47;87.87;95852.09;10561422;27;1901;-75
2023/08/19 10:16:46;;;;;;;;;;;;;;;29.38;78.95;95854.44;10566118;27;1825;-74
2023/08/19 10:21:50;;;;;;;;;;;;;;;29.48;80.89;95864.75;10563812;27;2629;-75
2023/08/19 10:27:10;;;;;;;;;;;;;;;29.50;74.72;95862.34;10552323;27;1996;-74
2023/08/19 10:32:15;;;;;;;;;;;;;;;29.91;67.83;95852.91;10537957;27;1929;-74
2023/08/19 10:37:20;;;;;;;;;;;;;;;30.03;69.93;95856.06;10563012;27;1857;-75
2023/08/19 10:42:24;;;;;;;;;;;;;;;30.33;65.52;95857.63;10544661;27;5215;-74
2023/08/19 10:47:30;;;;;;;;;;;;;;;29.95;67.60;95848.94;10542022;27;2123;-75
2023/08/19 10:57:56;;;;;;;;;;;;;;;30.09;69.01;95850.88;10555542;27;1781;-75
2023/08/19 11:03:02;;;;;;;;;;;;;;;30.23;70.50;95839.81;10570682;27;2033;-75
2023/08/19 11:08:08;;;;;;;;;;;;;;;30.10;64.73;95858.06;10559004;27;1931;-73
2023/08/19 11:13:14;;;;;;;;;;;;;;;30.15;66.29;95855.66;10562039;27;1958;-74
2023/08/19 11:18:33;;;;;;;;;;;;;;;30.34;62.27;95848.88;10558545;27;1801;-74
2023/08/19 11:23:38;;;;;;;;;;;;;;;29.96;65.78;95849.72;10564417;27;1906;-74
2023/08/19 11:28:44;;;;;;;;;;;;;;;30.09;59.49;95848.13;10557913;28;1963;-75
2023/08/19 11:33:52;;;;;;;;;;;;;;;30.40;63.64;95844.50;10514271;28;1877;-76
2023/08/19 11:38:59;;;;;;;;;;;;;;;30.43;54.35;95851.25;10515338;28;1872;-74
2023/08/19 11:44:09;;;;;;;;;;;;;;;30.59;60.12;95851.59;10549604;27;5122;-75
2023/08/19 11:49:20;;;;;;;;;;;;;;;30.63;58.78;95854.38;10514147;28;1845;-74
2023/08/19 11:54:33;;;;;;;;;;;;;;;30.78;55.63;95853.13;10549170;27;1935;-74
2023/08/19 11:59:42;;;;;;;;;;;;;;;30.86;50.09;95851.94;10519615;28;1871;-74
2023/08/19 12:04:50;;;;;;;;;;;;;;;30.97;49.17;95854.63;10510939;28;2095;-75
2023/08/19 12:09:58;;;;;;;;;;;;;;;30.66;50.97;95857.09;10517695;28;2438;-75
2023/08/19 12:15:05;;;;;;;;;;;;;;;30.86;50.81;95857.47;10515858;28;1852;-74
2023/08/19 12:20:13;;;;;;;;;;;;;;;31.13;47.39;95859.72;10525933;28;1835;-74
2023/08/19 12:25:16;;;;;;;;;;;;;;;31.09;46.72;95854.16;10521312;28;1906;-75
2023/08/19 12:30:32;;;;;;;;;;;;;;;30.93;45.82;95842.78;10544147;27;1837;-73
2023/08/19 12:35:38;;;;;;;;;;;;;;;30.73;47.54;95841.66;10580750;27;1890;-73
2023/08/19 12:40:43;;;;;;;;;;;;;;;30.95;44.02;95841.16;10567087;27;1884;-74
2023/08/19 12:46:00;;;;;;;;;;;;;;;31.11;44.38;95837.91;10581573;27;1861;-74
2023/08/19 12:51:07;;;;;;;;;;;;;;;31.62;43.29;95839.19;10562167;27;1825;-74
2023/08/19 12:56:12;;;;;;;;;;;;;;;31.76;41.28;95838.28;10546514;27;2082;-74
2023/08/19 13:01:21;;;;;;;;;;;;;;;31.72;40.14;95824.41;10564414;27;1918;-74
2023/08/19 13:06:30;;;;;;;;;;;;;;;31.49;40.47;95826.97;10538055;27;2465;-74
2023/08/19 13:11:34;;;;;;;;;;;;;;;31.47;39.81;95826.59;10559409;27;1849;-74
2023/08/19 13:16:39;;;;;;;;;;;;;;;31.49;39.88;95832.50;10548824;27;1985;-76
2023/08/19 13:21:43;;;;;;;;;;;;;;;31.29;39.68;95828.69;10561702;27;1909;-74
2023/08/19 13:26:48;;;;;;;;;;;;;;;31.38;40.38;95835.38;10541880;27;1878;-74
2023/08/19 13:31:51;;;;;;;;;;;;;;;31.55;41.89;95833.66;10557630;27;1919;-75
2023/08/19 13:36:56;;;;;;;;;;;;;;;31.19;42.96;95842.22;10562373;27;1879;-76
2023/08/19 13:42:02;;;;;;;;;;;;;;;31.42;43.86;95841.69;10573936;27;5068;-74
2023/08/19 13:47:10;;;;;;;;;;;;;;;31.58;41.77;95834.84;10556897;27;1897;-73
2023/08/19 13:52:15;;;;;;;;;;;;;;;31.71;40.18;95833.94;10563733;27;1964;-74
2023/08/19 13:57:20;;;;;;;;;;;;;;;31.61;41.13;95837.59;10561648;27;1876;-74
2023/08/19 14:02:32;;;;;;;;;;;;;;;31.63;43.44;95829.66;10546676;27;2559;-74
2023/08/19 14:07:43;;;;;;;;;;;;;;;31.60;43.23;95832.44;10564098;27;1812;-74
2023/08/19 14:12:51;;;;;;;;;;;;;;;31.65;41.80;95830.03;10553850;27;1860;-74
2023/08/19 14:17:54;;;;;;;;;;;;;;;32.02;40.94;95817.41;10562313;27;1893;-74
2023/08/19 14:23:02;;;;;;;;;;;;;;;31.89;40.70;95824.69;10558591;27;1938;-74
2023/08/19 14:28:10;;;;;;;;;;;;;;;31.65;39.64;95827.25;10541905;27;2096;-75
2023/08/19 14:33:16;;;;;;;;;;;;;;;31.58;39.52;95823.75;10563153;27;1857;-74
2023/08/19 14:38:23;;;;;;;;;;;;;;;31.69;39.55;95824.44;10520627;27;1824;-74
2023/08/19 14:43:37;;;;;;;;;;;;;;;31.63;39.38;95829.66;10548080;27;5052;-74
2023/08/19 14:48:47;;;;;;;;;;;;;;;31.66;39.23;95833.59;10553676;27;2071;-73
2023/08/19 14:53:54;;;;;;;;;;;;;;;31.96;38.03;95827.41;10548192;27;2193;-76
2023/08/19 14:58:59;;;;;;;;;;;;;;;32.26;38.16;95830.28;10554713;28;1951;-75
2023/08/19 15:04:06;;;;;;;;;;;;;;;31.98;37.98;95825.78;10564586;27;2041;-76
2023/08/19 15:14:32;;;;;;;;;;;;;;;32.19;37.65;95837.91;10574790;27;1847;-78
2023/08/19 15:19:37;;;;;;;;;;;;;;;32.04;36.37;95826.13;10548578;27;2134;-76
2023/08/19 15:24:45;;;;;;;;;;;;;;;31.93;36.55;95833.78;10541260;27;1935;-74
2023/08/19 15:29:49;;;;;;;;;;;;;;;31.96;36.97;95839.31;10566484;27;1873;-75
2023/08/19 15:35:07;;;;;;;;;;;;;;;31.92;36.53;95829.41;10540812;28;1894;-77
2023/08/19 15:40:11;;;;;;;;;;;;;;;31.69;37.97;95838.34;10560373;27;5142;-76
2023/08/19 15:45:16;;;;;;;;;;;;;;;31.59;39.28;95834.44;10578644;27;1975;-75
2023/08/19 15:50:24;;;;;;;;;;;;;;;31.32;41.21;95839.78;10545763;28;1901;-77
2023/08/19 15:55:30;;;;;;;;;;;;;;;31.04;44.85;95837.94;10574779;27;2575;-75
2023/08/19 16:00:38;;;;;;;;;;;;;;;30.89;45.10;95825.34;10544468;28;1850;-76
2023/08/19 16:05:44;;;;;;;;;;;;;;;30.58;48.21;95830.59;10561384;28;1918;-77
2023/08/19 16:10:49;;;;;;;;;;;;;;;30.44;52.51;95835.41;10561049;28;1482;-76
2023/08/19 16:16:01;;;;;;;;;;;;;;;30.38;55.80;95844.13;10559120;28;1582;-78
2023/08/19 16:21:05;;;;;;;;;;;;;;;30.21;57.86;95838.63;10562697;28;1477;-78
2023/08/19 16:26:13;;;;;;;;;;;;;;;30.11;63.80;95841.03;10562581;28;1910;-77
2023/08/19 16:31:27;;;;;;;;;;;;;;;29.94;76.25;95841.81;10549559;28;1547;-77
2023/08/19 16:36:39;;;;;;;;;;;;;;;29.82;81.93;95840.22;10557955;28;1673;-77
2023/08/19 16:41:42;;;;;;;;;;;;;;;29.63;85.66;95843.41;10573379;27;5092;-77
2023/08/19 16:46:47;;;;;;;;;;;;;;;29.59;85.12;95837.88;10565849;28;1913;-76
2023/08/19 16:51:55;;;;;;;;;;;;;;;29.56;88.18;95843.41;10562963;28;2588;-77
2023/08/19 16:56:59;;;;;;;;;;;;;;;29.40;88.62;95842.97;10541369;28;1651;-77
2023/08/19 17:02:02;;;;;;;;;;;;;;;29.42;86.93;95841.38;10566542;28;1412;-77
2023/08/19 17:07:19;;;;;;;;;;;;;;;29.22;91.36;95852.03;10571081;27;1580;-77
2023/08/19 17:12:32;;;;;;;;;;;;;;;29.11;93.79;95864.28;10573684;27;1498;-76
2023/08/19 17:17:42;;;;;;;;;;;;;;;28.85;98.16;95860.59;10570486;28;1599;-76
2023/08/19 17:22:53;;;;;;;;;;;;;;;28.79;100.00;95867.69;10552741;27;1955;-77
2023/08/19 17:27:56;;;;;;;;;;;;;;;28.65;100.00;95862.09;10585267;27;1714;-76
2023/08/19 17:33:05;;;;;;;;;;;;;;;28.62;100.00;95862.88;10551744;27;1451;-77
2023/08/19 17:38:10;;;;;;;;;;;;;;;28.51;100.00;95871.94;10549911;28;1709;-77
2023/08/19 17:43:18;;;;;;;;;;;;;;;28.34;100.00;95867.09;10542546;27;5078;-77
2023/08/19 17:48:22;;;;;;;;;;;;;;;28.06;100.00;95864.09;10570397;27;2555;-77
2023/08/19 17:53:27;;;;;;;;;;;;;;;27.98;100.00;95864.06;10566161;28;1499;-77
2023/08/19 17:58:37;;;;;;;;;;;;;;;27.81;100.00;95872.22;10570096;27;1706;-77
2023/08/19 18:03:53;;;;;;;;;;;;;;;27.64;100.00;95876.38;10551786;27;1906;-77
2023/08/19 18:09:05;;;;;;;;;;;;;;;27.53;100.00;95881.81;10568797;27;1630;-77
2023/08/19 18:14:13;;;;;;;;;;;;;;;27.31;100.00;95882.78;10562425;27;1679;-79
2023/08/19 18:19:21;;;;;;;;;;;;;;;27.09;100.00;95884.53;10568117;27;1955;-78
2023/08/19 18:24:26;;;;;;;;;;;;;;;26.93;100.00;95890.22;10566691;28;1993;-77
2023/08/19 18:29:31;;;;;;;;;;;;;;;26.74;100.00;95901.44;10568724;27;1757;-77
2023/08/19 18:34:37;;;;;;;;;;;;;;;26.57;100.00;95898.06;10582864;27;1831;-77
2023/08/19 18:39:45;;;;;;;;;;;;;;;26.51;100.00;95910.56;10581080;27;1969;-77
2023/08/19 18:44:56;;;;;;;;;;;;;;;26.35;100.00;95919.00;10565847;27;2502;-77
2023/08/19 18:50:02;;;;;;;;;;;;;;;26.25;100.00;95919.63;10557739;27;1939;-78
2023/08/19 18:55:11;;;;;;;;;;;;;;;26.04;100.00;95922.06;10561868;27;1880;-78
2023/08/19 19:00:28;;;;;;;;;;;;;;;25.87;100.00;95928.88;10529987;27;1895;-76
2023/08/19 19:05:34;;;;;;;;;;;;;;;25.89;100.00;95932.03;10551222;27;1980;-75
2023/08/19 19:10:42;;;;;;;;;;;;;;;25.87;100.00;95937.94;10574246;27;1989;-75
2023/08/19 19:15:46;;;;;;;;;;;;;;;25.68;100.00;95940.72;10556365;28;2007;-76
2023/08/19 19:20:53;;;;;;;;;;;;;;;25.61;100.00;95944.13;10556079;28;1911;-75
2023/08/19 19:25:59;;;;;;;;;;;;;;;25.47;100.00;95945.84;10562951;27;1910;-76
2023/08/19 19:31:02;;;;;;;;;;;;;;;25.50;100.00;95956.13;10559501;27;1802;-76
2023/08/19 19:36:08;;;;;;;;;;;;;;;25.36;100.00;95961.34;10555297;27;2020;-77
2023/08/19 19:41:15;;;;;;;;;;;;;;;25.29;100.00;95976.56;10562478;27;5080;-76
2023/08/19 19:46:29;;;;;;;;;;;;;;;25.14;100.00;95974.72;10558542;28;1991;-76
2023/08/19 19:51:34;;;;;;;;;;;;;;;25.01;100.00;95981.47;10535593;28;1945;-75
2023/08/19 19:56:37;;;;;;;;;;;;;;;24.89;100.00;95981.63;10563338;28;2002;-77
2023/08/19 20:01:42;;;;;;;;;;;;;;;24.74;100.00;95984.03;10559212;28;1911;-75
2023/08/19 20:06:47;;;;;;;;;;;;;;;24.77;100.00;95988.84;10537353;28;1995;-75
2023/08/19 20:11:50;;;;;;;;;;;;;;;24.68;100.00;95985.47;10533217;28;1940;-75
2023/08/19 20:16:54;;;;;;;;;;;;;;;24.76;100.00;95994.69;10556462;28;1915;-75
2023/08/19 20:21:57;;;;;;;;;;;;;;;24.66;100.00;96001.53;10574881;27;1890;-75
2023/08/19 20:27:02;;;;;;;;;;;;;;;24.60;100.00;96005.72;10541632;28;1976;-76
2023/08/19 20:32:05;;;;;;;;;;;;;;;24.49;100.00;96007.44;10536475;28;1848;-74
2023/08/19 20:37:08;;;;;;;;;;;;;;;24.47;100.00;95998.75;10554292;28;2449;-76
2023/08/19 20:42:16;;;;;;;;;;;;;;;24.49;100.00;96004.69;10568551;27;5012;-75
2023/08/19 20:47:22;;;;;;;;;;;;;;;24.43;100.00;95998.69;10570262;27;1932;-75
2023/08/19 20:52:25;;;;;;;;;;;;;;;24.15;100.00;96004.25;10546302;28;1976;-74
2023/08/19 20:57:31;;;;;;;;;;;;;;;24.08;100.00;96001.34;10519533;27;1844;-68
2023/08/19 21:02:35;;;;;;;;;;;;;;;24.00;100.00;96007.81;10546043;27;1907;-68
2023/08/19 21:07:39;;;;;;;;;;;;;;;23.89;100.00;96009.47;10554006;27;1936;-70
2023/08/19 21:12:42;;;;;;;;;;;;;;;23.96;100.00;96013.19;10560737;28;1876;-69
2023/08/19 21:17:48;;;;;;;;;;;;;;;24.22;100.00;96003.63;10563266;27;1887;-69
2023/08/19 21:22:54;;;;;;;;;;;;;;;24.09;100.00;96008.41;10562632;27;1924;-70
2023/08/19 21:27:57;;;;;;;;;;;;;;;23.90;100.00;96011.06;10566815;27;1990;-69
2023/08/19 21:33:04;;;;;;;;;;;;;;;23.99;100.00;96001.53;10561583;27;2413;-71
2023/08/19 21:38:07;;;;;;;;;;;;;;;23.85;100.00;96011.31;10562309;27;1970;-75
2023/08/19 21:43:14;;;;;;;;;;;;;;;23.64;100.00;96008.84;10540936;27;5140;-69
2023/08/19 21:48:18;;;;;;;;;;;;;;;23.46;100.00;96016.53;10562269;28;1988;-74
2023/08/19 21:53:23;;;;;;;;;;;;;;;23.40;100.00;96020.69;10561199;27;2144;-69
2023/08/19 21:58:26;;;;;;;;;;;;;;;23.46;100.00;96016.53;10574840;27;1907;-71
2023/08/19 22:03:29;;;;;;;;;;;;;;;23.62;100.00;96013.88;10558354;27;1974;-70
2023/08/19 22:08:33;;;;;;;;;;;;;;;23.61;100.00;96023.25;10558793;27;1948;-70
2023/08/19 22:13:37;;;;;;;;;;;;;;;23.56;100.00;96020.75;10559032;27;1837;-69
2023/08/19 22:18:45;;;;;;;;;;;;;;;23.62;100.00;96025.66;10574678;27;1881;-70
2023/08/19 22:23:49;;;;;;;;;;;;;;;23.61;100.00;96018.56;10555959;27;1982;-68
2023/08/19 22:28:52;;;;;;;;;;;;;;;23.54;100.00;96017.53;10557094;28;2466;-69
2023/08/19 22:34:00;;;;;;;;;;;;;;;23.62;100.00;96011.94;10540564;27;2052;-68
2023/08/19 22:39:03;;;;;;;;;;;;;;;23.55;100.00;96022.69;10543414;27;1892;-68
2023/08/19 22:44:08;;;;;;;;;;;;;;;23.55;100.00;96017.22;10579400;27;5106;-68
2023/08/19 22:49:11;;;;;;;;;;;;;;;23.61;100.00;96026.81;10557688;27;1887;-69
2023/08/19 22:54:15;;;;;;;;;;;;;;;23.60;100.00;96021.63;10558915;27;2110;-71
2023/08/19 22:59:19;;;;;;;;;;;;;;;23.61;100.00;96024.06;10560590;27;1931;-70
2023/08/19 23:04:21;;;;;;;;;;;;;;;23.70;100.00;96021.16;10556172;27;1930;-68
2023/08/19 23:09:29;;;;;;;;;;;;;;;23.54;100.00;96015.63;10555795;27;1916;-69
2023/08/19 23:14:35;;;;;;;;;;;;;;;23.44;100.00;96014.16;10556778;27;1988;-69
2023/08/19 23:19:38;;;;;;;;;;;;;;;23.35;100.00;96010.78;10560044;27;1872;-68
2023/08/19 23:24:46;;;;;;;;;;;;;;;23.18;100.00;96009.13;10555348;27;1906;-68
2023/08/19 23:29:49;;;;;;;;;;;;;;;23.01;100.00;96016.84;10554993;27;1836;-68
2023/08/19 23:34:51;;;;;;;;;;;;;;;23.01;100.00;96014.91;10534999;27;1910;-69
2023/08/19 23:40:00;;;;;;;;;;;;;;;22.85;100.00;96014.81;10540695;27;5100;-68
2023/08/19 23:45:09;;;;;;;;;;;;;;;22.71;100.00;96002.59;10537499;28;1906;-68
2023/08/19 23:50:12;;;;;;;;;;;;;;;22.63;100.00;96001.59;10554444;28;1892;-69
2023/08/19 23:55:16;;;;;;;;;;;;;;;22.53;100.00;95997.41;10569804;27;1813;-69
